Terminal Aerodrome Forecast
Issued by NWS Melbourne, FL

Home | Current Version | Previous Version | Text Only | Print | Product List | Glossary On
Versions: 1 2 3 4 5 6 7 8 9 10 11 12 13 14 15 16 17 18 19 20 21 22 23 24 25 26 27 28
582
FTUS42 KMLB 301501 AAA
TAFMCO
TAF AMD
KMCO 301501Z 3015/0112 23006KT P6SM VCSH SCT023 SCT250
     FM301700 25005KT P6SM VCTS SCT045CB SCT250
     FM010000 12005KT P6SM FEW050 SCT250=

USA.gov is the U.S. government's official web portal to all federal, state and local government web resources and services.